createdAt,value
2019-01-18T00:01:26.538Z,42.02
2019-01-18T00:03:56.091Z,43.01
2019-01-18T00:06:25.626Z,43.39
2019-01-18T00:08:55.130Z,43.21
2019-01-18T00:11:24.685Z,40.01
2019-01-18T00:13:54.244Z,39.97
2019-01-18T00:16:23.751Z,39.71
2019-01-18T00:18:53.264Z,40.34
2019-01-18T00:21:22.814Z,41.42
2019-01-18T00:23:52.329Z,43.68
2019-01-18T00:26:21.829Z,43.07
2019-01-18T00:28:52.740Z,39.45
2019-01-18T00:31:22.245Z,38.44
2019-01-18T00:33:51.925Z,36.19
2019-01-18T00:36:22.910Z,34.80
2019-01-18T00:38:52.414Z,35.10
2019-01-18T00:41:21.927Z,35.49
2019-01-18T00:43:51.887Z,35.96
2019-01-18T00:46:21.397Z,36.19
2019-01-18T00:48:50.893Z,36.09
2019-01-18T00:51:20.445Z,35.82
2019-01-18T00:53:49.964Z,35.70
2019-01-18T00:56:19.486Z,35.88
2019-01-18T00:58:50.299Z,36.55
2019-01-18T01:01:19.802Z,36.51
2019-01-18T01:03:50.458Z,37.55
2019-01-18T01:06:19.973Z,39.11
2019-01-18T01:08:49.517Z,40.07
2019-01-18T01:11:19.254Z,41.76
2019-01-18T01:13:48.846Z,41.41
2019-01-18T01:16:18.350Z,41.67
2019-01-18T01:18:47.981Z,41.55
2019-01-18T01:21:19.965Z,42.06
2019-01-18T01:23:49.478Z,41.38
2019-01-18T01:26:18.979Z,41.97
2019-01-18T01:28:48.703Z,42.81
2019-01-18T01:31:18.291Z,43.83
2019-01-18T01:33:47.805Z,45.99
2019-01-18T01:36:17.341Z,46.79
2019-01-18T01:38:46.848Z,45.38
2019-01-18T01:41:16.359Z,44.46
2019-01-18T01:43:45.896Z,43.94
2019-01-18T01:46:15.437Z,44.11
2019-01-18T01:48:44.950Z,43.89
2019-01-18T01:51:14.464Z,42.43
2019-01-18T01:53:44.023Z,42.25
2019-01-18T01:56:13.527Z,41.58
2019-01-18T01:58:43.149Z,41.49
2019-01-18T02:01:13.105Z,40.54
2019-01-18T02:03:42.599Z,39.79
2019-01-18T02:06:12.110Z,39.70
2019-01-18T02:08:43.054Z,40.35
2019-01-18T02:11:12.563Z,42.78
2019-01-18T02:13:42.237Z,43.61
2019-01-18T02:16:11.825Z,43.80
2019-01-18T02:18:41.322Z,43.98
2019-01-18T02:21:10.836Z,43.73
2019-01-18T02:23:43.253Z,43.43
2019-01-18T02:26:14.116Z,42.35
2019-01-18T02:28:43.620Z,42.50
2019-01-18T02:31:13.150Z,42.63
2019-01-18T02:33:42.712Z,42.61
2019-01-18T02:36:12.208Z,42.78
2019-01-18T02:38:41.714Z,42.41
2019-01-18T02:41:12.586Z,41.39
2019-01-18T02:43:42.086Z,40.19
2019-01-18T02:46:11.781Z,40.29
2019-01-18T02:48:41.336Z,40.81
2019-01-18T02:51:10.851Z,40.95
2019-01-18T02:53:40.347Z,41.81
2019-01-18T02:56:10.012Z,40.29
2019-01-18T02:58:39.545Z,40.43
2019-01-18T03:01:09.063Z,41.25
2019-01-18T03:03:38.619Z,41.81
2019-01-18T03:06:08.130Z,41.42
2019-01-18T03:08:37.638Z,41.55
2019-01-18T03:11:07.198Z,41.90
2019-01-18T03:13:37.694Z,41.89
2019-01-18T03:16:07.189Z,42.06
2019-01-18T03:18:36.693Z,41.85
2019-01-18T03:21:06.301Z,42.01
2019-01-18T03:23:35.806Z,41.79
2019-01-18T03:26:05.312Z,41.25
2019-01-18T03:28:34.934Z,41.06
2019-01-18T03:31:04.457Z,39.62
2019-01-18T03:33:33.956Z,37.67
2019-01-18T03:36:03.503Z,36.83
2019-01-18T03:38:33.010Z,36.72
2019-01-18T03:41:02.617Z,37.38
2019-01-18T03:43:32.306Z,38.13
2019-01-18T03:46:03.257Z,37.58
2019-01-18T03:48:32.756Z,37.20
2019-01-18T03:51:02.267Z,36.97
2019-01-18T03:53:31.815Z,37.02
2019-01-18T03:56:01.322Z,36.78
2019-01-18T03:58:30.840Z,37.07
2019-01-18T04:01:01.747Z,37.80
2019-01-18T04:03:31.266Z,37.82
2019-01-18T04:06:00.774Z,38.64
2019-01-18T04:08:30.320Z,40.05
2019-01-18T04:11:01.391Z,40.67
2019-01-18T04:13:30.897Z,40.40
2019-01-18T04:16:01.319Z,37.86
2019-01-18T04:18:30.889Z,36.29
2019-01-18T04:21:00.404Z,35.49
2019-01-18T04:23:29.915Z,35.13
2019-01-18T04:25:59.476Z,35.71
2019-01-18T04:28:28.990Z,35.44
2019-01-18T04:30:58.500Z,35.30
2019-01-18T04:33:28.071Z,35.46
2019-01-18T04:35:57.645Z,36.04
2019-01-18T04:38:27.157Z,36.28
2019-01-18T04:40:56.714Z,35.70
2019-01-18T04:43:26.218Z,36.83
2019-01-18T04:45:55.775Z,38.87
2019-01-18T04:48:25.287Z,39.44
2019-01-18T04:50:54.785Z,38.95
2019-01-18T04:53:24.343Z,35.66
2019-01-18T04:55:53.856Z,32.87
2019-01-18T04:58:23.373Z,26.93
2019-01-18T05:00:52.928Z,20.93
2019-01-18T05:03:22.570Z,19.35
2019-01-18T05:05:52.652Z,20.19
2019-01-18T05:08:22.248Z,21.13
2019-01-18T05:10:51.733Z,20.13
2019-01-18T05:13:21.242Z,19.47
2019-01-18T05:15:50.799Z,21.01
2019-01-18T05:18:20.354Z,23.98
2019-01-18T05:20:50.049Z,24.14
2019-01-18T05:23:19.599Z,22.29
2019-01-18T05:25:49.110Z,20.40
2019-01-18T05:28:18.613Z,20.57
2019-01-18T05:30:48.163Z,21.73
2019-01-18T05:33:17.721Z,25.15
2019-01-18T05:35:47.238Z,26.05
2019-01-18T05:38:16.797Z,25.83
2019-01-18T05:40:46.294Z,25.88
2019-01-18T05:43:15.826Z,26.27
2019-01-18T05:45:45.377Z,26.67
2019-01-18T05:48:14.923Z,26.85
2019-01-18T05:50:44.476Z,27.01
2019-01-18T05:53:14.357Z,27.01
2019-01-18T05:55:43.855Z,25.23
2019-01-18T05:58:13.404Z,24.47
2019-01-18T06:00:56.984Z,24.19
2019-01-18T06:03:26.574Z,18.65
2019-01-18T06:05:56.091Z,9.81
2019-01-18T06:08:25.601Z,9.72
2019-01-18T06:10:55.181Z,23.35
2019-01-18T06:13:24.696Z,28.74
2019-01-18T06:15:54.233Z,31.32
2019-01-18T06:18:25.083Z,42.81
2019-01-18T06:20:54.753Z,54.65
2019-01-18T06:23:24.295Z,59.76
2019-01-18T06:25:53.820Z,59.65
2019-01-18T06:28:23.326Z,59.28
2019-01-18T06:30:52.871Z,65.18
2019-01-18T06:33:22.373Z,66.59
2019-01-18T06:35:51.994Z,67.37
2019-01-18T06:38:21.565Z,67.47
2019-01-18T06:40:51.751Z,66.08
2019-01-18T06:43:21.255Z,66.50
2019-01-18T06:45:50.810Z,66.55
2019-01-18T06:48:25.597Z,66.32
2019-01-18T06:50:55.190Z,65.38
2019-01-18T06:53:24.824Z,65.03
2019-01-18T06:55:54.336Z,64.89
2019-01-18T06:58:23.861Z,63.71
2019-01-18T07:00:53.421Z,62.97
2019-01-18T07:03:22.945Z,63.90
2019-01-18T07:05:52.513Z,66.89
2019-01-18T07:08:22.035Z,66.80
2019-01-18T07:10:51.535Z,66.67
2019-01-18T07:13:22.425Z,67.76
2019-01-18T07:15:52.107Z,68.18
2019-01-18T07:18:21.629Z,67.56
2019-01-18T07:20:51.176Z,67.86
2019-01-18T07:23:20.732Z,67.41
2019-01-18T07:25:50.246Z,69.50
2019-01-18T07:28:19.798Z,71.33
2019-01-18T07:30:49.611Z,69.53
2019-01-18T07:33:19.131Z,69.68
2019-01-18T07:35:48.682Z,66.79
2019-01-18T07:38:18.190Z,63.95
2019-01-18T07:40:47.699Z,64.04
2019-01-18T07:43:17.257Z,64.51
2019-01-18T07:45:46.817Z,64.29
2019-01-18T07:48:16.325Z,62.80
2019-01-18T07:50:45.863Z,61.39
2019-01-18T07:53:16.732Z,62.28
2019-01-18T07:55:46.240Z,62.17
2019-01-18T07:58:15.758Z,63.07
2019-01-18T08:00:45.318Z,62.97
2019-01-18T08:03:15.014Z,64.85
2019-01-18T08:05:44.649Z,65.48
2019-01-18T08:08:14.170Z,66.59
2019-01-18T08:10:43.676Z,66.32
2019-01-18T08:13:13.246Z,65.08
2019-01-18T08:15:42.766Z,67.03
2019-01-18T08:18:12.274Z,70.16
2019-01-18T08:20:41.838Z,71.82
2019-01-18T08:23:11.338Z,74.13
2019-01-18T08:25:40.893Z,74.85
2019-01-18T08:28:10.401Z,76.02
2019-01-18T08:30:39.918Z,75.11
2019-01-18T08:33:09.478Z,73.68
2019-01-18T08:35:39.012Z,74.15
2019-01-18T08:38:08.513Z,74.05
2019-01-18T08:40:43.885Z,71.94
2019-01-18T08:43:15.231Z,69.98
2019-01-18T08:45:53.062Z,68.08
2019-01-18T08:48:23.610Z,67.68
2019-01-18T08:50:53.769Z,67.84
2019-01-18T08:53:23.327Z,67.42
2019-01-18T08:55:52.842Z,67.47
2019-01-18T08:58:22.509Z,66.18
2019-01-18T09:00:53.264Z,66.48
2019-01-18T09:03:22.795Z,58.18
2019-01-18T09:05:52.295Z,51.83
2019-01-18T09:08:21.862Z,53.60
2019-01-18T09:10:51.701Z,57.31
2019-01-18T09:13:21.171Z,57.48
2019-01-18T09:15:50.791Z,58.75
2019-01-18T09:18:20.485Z,56.88
2019-01-18T09:20:50.280Z,52.32
2019-01-18T09:23:21.047Z,47.70
2019-01-18T09:25:50.592Z,47.75
2019-01-18T09:28:20.098Z,49.82
2019-01-18T09:30:49.619Z,48.38
2019-01-18T09:33:19.170Z,49.97
2019-01-18T09:35:48.673Z,51.38
2019-01-18T09:38:18.210Z,48.95
2019-01-18T09:40:49.350Z,49.79
2019-01-18T09:43:18.933Z,52.00
2019-01-18T09:45:48.434Z,54.12
2019-01-18T09:48:19.297Z,55.73
2019-01-18T09:50:48.889Z,54.12
2019-01-18T09:53:18.457Z,57.93
2019-01-18T09:55:48.054Z,50.74
2019-01-18T09:58:17.603Z,46.85
2019-01-18T10:00:47.263Z,47.60
2019-01-18T10:03:16.887Z,48.65
2019-01-18T10:05:46.393Z,42.07
2019-01-18T10:08:16.009Z,42.45
2019-01-18T10:10:45.574Z,43.96
2019-01-18T10:13:15.088Z,43.94
2019-01-18T10:15:46.209Z,44.22
2019-01-18T10:18:16.276Z,45.51
2019-01-18T10:20:45.929Z,45.52
2019-01-18T10:23:15.471Z,46.15
2019-01-18T10:25:45.142Z,45.14
2019-01-18T10:28:14.769Z,44.13
2019-01-18T10:30:44.423Z,45.65
2019-01-18T10:33:14.009Z,40.90
2019-01-18T10:35:43.614Z,39.50
2019-01-18T10:38:13.122Z,43.87
2019-01-18T10:40:42.708Z,44.52
2019-01-18T10:43:12.229Z,47.38
2019-01-18T10:45:41.883Z,51.59
2019-01-18T10:48:11.451Z,51.85
2019-01-18T10:50:41.008Z,49.44
2019-01-18T10:53:10.574Z,53.44
2019-01-18T10:55:40.142Z,49.38
2019-01-18T10:58:09.667Z,51.47
2019-01-18T11:00:39.201Z,50.42
2019-01-18T11:03:09.100Z,55.36
2019-01-18T11:05:38.640Z,62.07
2019-01-18T11:08:08.149Z,64.11
2019-01-18T11:10:37.718Z,66.68
2019-01-18T11:13:07.249Z,66.31
2019-01-18T11:15:36.764Z,68.37
2019-01-18T11:18:07.049Z,66.53
2019-01-18T11:20:53.061Z,67.55
2019-01-18T11:23:23.920Z,66.63
2019-01-18T11:25:53.424Z,66.41
2019-01-18T11:28:22.925Z,67.41
2019-01-18T11:30:54.828Z,65.53
2019-01-18T11:33:24.334Z,68.82
2019-01-18T11:35:53.842Z,70.18
2019-01-18T11:38:24.639Z,69.95
2019-01-18T11:40:54.156Z,69.00
2019-01-18T11:43:23.731Z,69.02
2019-01-18T11:45:54.593Z,67.52
2019-01-18T11:48:25.894Z,67.62
2019-01-18T11:50:55.618Z,69.28
2019-01-18T11:53:26.396Z,71.29
2019-01-18T11:55:55.965Z,70.25
2019-01-18T11:58:25.502Z,71.20
2019-01-18T12:00:55.066Z,72.36
2019-01-18T12:03:24.599Z,72.91
2019-01-18T12:05:54.131Z,75.57
2019-01-18T12:08:23.777Z,75.57
2019-01-18T12:10:53.382Z,75.93
2019-01-18T12:13:22.895Z,74.80
2019-01-18T12:15:53.799Z,73.34
2019-01-18T12:18:23.333Z,74.21
2019-01-18T12:20:52.892Z,74.05
2019-01-18T12:23:22.452Z,74.23
2019-01-18T12:25:52.050Z,75.47
2019-01-18T12:28:22.599Z,73.73
2019-01-18T12:30:52.260Z,74.64
2019-01-18T12:33:21.787Z,74.74
2019-01-18T12:35:51.294Z,76.94
2019-01-18T12:38:20.854Z,77.40
2019-01-18T12:40:50.355Z,77.93
2019-01-18T12:43:19.864Z,78.27
2019-01-18T12:45:49.425Z,77.85
2019-01-18T12:48:18.935Z,77.71
2019-01-18T12:50:48.435Z,78.34
2019-01-18T12:53:17.990Z,78.86
2019-01-18T12:55:47.498Z,78.58
2019-01-18T12:58:17.058Z,78.01
2019-01-18T13:00:46.834Z,78.23
2019-01-18T13:03:16.350Z,77.79
2019-01-18T13:05:48.433Z,78.04
2019-01-18T13:08:18.149Z,77.75
2019-01-18T13:10:47.654Z,77.12
2019-01-18T13:13:17.304Z,77.39
2019-01-18T13:16:10.741Z,77.01
2019-01-18T13:18:41.560Z,76.71
2019-01-18T13:21:11.375Z,76.18
2019-01-18T13:23:40.964Z,75.97
2019-01-18T13:26:10.472Z,75.90
2019-01-18T13:28:39.981Z,75.98
2019-01-18T13:31:09.722Z,76.26
2019-01-18T13:33:39.227Z,76.54
2019-01-18T13:36:15.406Z,76.67
2019-01-18T13:38:45.096Z,76.42
2019-01-18T13:41:14.706Z,75.76
2019-01-18T13:43:44.255Z,75.40
2019-01-18T13:46:13.902Z,75.74
2019-01-18T13:48:43.409Z,76.21
2019-01-18T13:51:12.975Z,75.89
2019-01-18T13:53:42.642Z,75.86
2019-01-18T13:56:12.261Z,76.00
2019-01-18T13:58:41.806Z,76.28
2019-01-18T14:01:11.323Z,75.75
2019-01-18T14:03:40.862Z,75.29
2019-01-18T14:06:10.433Z,75.26
2019-01-18T14:08:39.936Z,74.72
2019-01-18T14:11:16.387Z,74.53
2019-01-18T14:13:45.893Z,74.42
2019-01-18T14:16:15.534Z,74.08
2019-01-18T14:18:45.084Z,73.74
2019-01-18T14:21:14.600Z,73.51
2019-01-18T14:23:44.171Z,73.14
2019-01-18T14:26:13.725Z,72.75
2019-01-18T14:28:43.254Z,72.34
2019-01-18T14:31:12.749Z,71.82
2019-01-18T14:33:42.353Z,70.99
2019-01-18T14:36:14.606Z,69.90
2019-01-18T14:38:43.104Z,69.68
2019-01-18T14:41:15.766Z,68.95
2019-01-18T14:43:45.425Z,70.13
2019-01-18T14:46:15.031Z,70.89
2019-01-18T14:48:45.887Z,70.48
2019-01-18T14:51:15.400Z,70.98
2019-01-18T14:53:44.922Z,71.69
2019-01-18T14:56:15.689Z,71.91
2019-01-18T14:58:45.265Z,72.58
2019-01-18T15:01:14.782Z,72.71
2019-01-18T15:03:44.684Z,72.63
2019-01-18T15:06:14.365Z,72.96
2019-01-18T15:08:44.878Z,72.73
2019-01-18T15:11:14.402Z,71.65
2019-01-18T15:13:43.989Z,71.12
2019-01-18T15:16:13.503Z,70.14
2019-01-18T15:18:44.425Z,72.68
2019-01-18T15:21:13.963Z,74.30
2019-01-18T15:23:43.576Z,77.79
2019-01-18T15:26:18.388Z,78.90
2019-01-18T15:28:44.404Z,79.47
2019-01-18T15:31:13.948Z,79.56
2019-01-18T15:33:43.534Z,79.46
2019-01-18T15:36:13.036Z,79.35
2019-01-18T15:38:42.615Z,78.78
2019-01-18T15:41:12.288Z,78.56
2019-01-18T15:43:41.817Z,78.45
2019-01-18T15:46:11.341Z,78.38
2019-01-18T15:48:40.930Z,77.79
2019-01-18T15:51:10.522Z,78.16
2019-01-18T15:53:40.066Z,77.32
2019-01-18T15:56:09.580Z,76.74
2019-01-18T15:58:40.536Z,76.91
2019-01-18T16:01:10.044Z,76.72
2019-01-18T16:03:39.591Z,76.53
2019-01-18T16:06:09.264Z,76.04
2019-01-18T16:08:38.789Z,75.12
2019-01-18T16:11:08.312Z,75.02
2019-01-18T16:13:38.414Z,74.89
2019-01-18T16:16:29.767Z,74.17
2019-01-18T16:19:00.957Z,72.50
2019-01-18T16:21:31.898Z,65.51
2019-01-18T16:24:01.587Z,67.15
2019-01-18T16:26:31.097Z,65.86
2019-01-18T16:29:00.643Z,66.22
2019-01-18T16:31:30.637Z,66.90
2019-01-18T16:34:00.146Z,71.23
2019-01-18T16:36:29.667Z,73.57
2019-01-18T16:39:00.704Z,74.61
2019-01-18T16:41:33.065Z,73.44
2019-01-18T16:44:02.577Z,72.89
2019-01-18T16:46:32.118Z,73.03
2019-01-18T16:49:01.634Z,73.90
2019-01-18T16:51:31.134Z,73.91
2019-01-18T16:54:00.706Z,73.81
2019-01-18T16:56:30.230Z,73.70
2019-01-18T16:58:59.787Z,73.85
2019-01-18T17:01:29.351Z,74.75
2019-01-18T17:03:58.870Z,75.20
2019-01-18T17:06:28.468Z,75.19
2019-01-18T17:08:57.976Z,77.78
2019-01-18T17:11:27.502Z,78.04
2019-01-18T17:13:57.063Z,77.92
2019-01-18T17:16:26.559Z,78.14
2019-01-18T17:18:56.160Z,78.08
2019-01-18T17:21:25.743Z,78.53
2019-01-18T17:23:56.528Z,78.04
2019-01-18T17:26:26.102Z,78.35
2019-01-18T17:28:55.612Z,77.60
2019-01-18T17:31:25.129Z,77.37
2019-01-18T17:33:57.024Z,77.38
2019-01-18T17:37:09.389Z,76.24
2019-01-18T17:40:36.544Z,75.25
2019-01-18T17:43:34.764Z,72.62
2019-01-18T17:47:07.560Z,66.74
2019-01-18T17:50:25.499Z,65.01
2019-01-18T17:54:00.128Z,63.25
2019-01-18T17:57:28.286Z,57.14
2019-01-18T18:00:35.351Z,56.45
2019-01-18T18:03:45.536Z,49.66
2019-01-18T18:07:11.157Z,51.20
2019-01-18T18:10:15.509Z,50.43
2019-01-18T18:13:20.866Z,55.20
2019-01-18T18:16:28.131Z,52.14
2019-01-18T18:19:34.414Z,55.90
2019-01-18T18:22:46.613Z,58.45
2019-01-18T18:25:40.217Z,61.01
2019-01-18T18:28:52.511Z,64.06
2019-01-18T18:32:11.806Z,65.27
2019-01-18T18:35:55.725Z,67.25
2019-01-18T18:39:13.619Z,69.43
2019-01-18T18:42:32.969Z,71.04
2019-01-18T18:46:07.758Z,71.33
2019-01-18T18:49:16.790Z,72.11
2019-01-18T18:52:17.417Z,72.50
2019-01-18T18:55:18.737Z,73.01
2019-01-18T18:58:35.181Z,72.76
2019-01-18T19:01:38.695Z,72.65
2019-01-18T19:04:57.346Z,72.19
2019-01-18T19:07:42.465Z,70.86
2019-01-18T19:10:37.646Z,68.77
2019-01-18T19:13:52.663Z,68.04
2019-01-18T19:16:56.743Z,68.95
2019-01-18T19:20:09.135Z,67.69
2019-01-18T19:23:11.572Z,67.43
2019-01-18T19:26:19.119Z,66.61
2019-01-18T19:29:40.755Z,69.17
2019-01-18T19:32:42.106Z,72.42
2019-01-18T19:35:29.956Z,73.23
2019-01-18T19:38:45.060Z,72.98
2019-01-18T19:42:00.009Z,71.88
2019-01-18T19:45:00.193Z,70.15
2019-01-18T19:48:02.592Z,68.13
2019-01-18T19:51:18.076Z,67.92
2019-01-18T19:54:22.240Z,69.03
2019-01-18T19:57:44.823Z,67.80
2019-01-18T20:01:04.493Z,67.04
2019-01-18T20:04:26.819Z,67.31
2019-01-18T20:07:18.453Z,68.39
2019-01-18T20:10:15.407Z,68.61
2019-01-18T20:13:21.279Z,69.01
2019-01-18T20:16:19.563Z,68.47
2019-01-18T20:19:24.161Z,68.45
2019-01-18T20:22:25.864Z,68.36
2019-01-18T20:25:05.652Z,67.68
2019-01-18T20:28:02.292Z,68.48
2019-01-18T20:30:44.826Z,69.75
2019-01-18T20:33:56.133Z,70.55
2019-01-18T20:37:12.291Z,70.16
2019-01-18T20:40:02.213Z,69.51
2019-01-18T20:43:03.809Z,67.94
2019-01-18T20:46:11.364Z,67.24
2019-01-18T20:49:15.472Z,66.32
2019-01-18T20:52:27.748Z,65.30
2019-01-18T20:55:57.724Z,66.22
2019-01-18T20:58:56.792Z,70.08
2019-01-18T21:01:45.776Z,70.44
2019-01-18T21:04:43.019Z,71.14
2019-01-18T21:07:25.182Z,71.84
2019-01-18T21:10:32.680Z,71.91
2019-01-18T21:13:19.266Z,74.37
2019-01-18T21:16:15.798Z,77.62
2019-01-18T21:19:09.788Z,79.00
2019-01-18T21:22:14.706Z,79.80
2019-01-18T21:25:15.740Z,79.49
2019-01-18T21:28:22.445Z,79.60
2019-01-18T21:31:22.292Z,79.75
2019-01-18T21:34:47.967Z,80.23
2019-01-18T21:38:07.240Z,80.30
2019-01-18T21:40:52.013Z,80.55
2019-01-18T21:44:02.224Z,80.77
2019-01-18T21:47:07.750Z,80.78
2019-01-18T21:50:14.057Z,80.95
2019-01-18T21:53:21.631Z,81.22
2019-01-18T21:56:18.849Z,81.25
2019-01-18T21:59:11.004Z,81.10
2019-01-18T22:02:21.426Z,81.07
2019-01-18T22:05:13.195Z,81.00
2019-01-18T22:08:19.723Z,81.11
2019-01-18T22:11:32.990Z,81.27
2019-01-18T22:14:35.709Z,81.13
2019-01-18T22:17:58.697Z,80.52
2019-01-18T22:20:43.813Z,80.50
2019-01-18T22:23:30.790Z,80.59
2019-01-18T22:26:47.956Z,80.50
2019-01-18T22:29:59.165Z,81.05
2019-01-18T22:33:02.128Z,80.86
2019-01-18T22:36:10.800Z,81.19
2019-01-18T22:39:07.244Z,81.34
2019-01-18T22:42:14.518Z,81.42
2019-01-18T22:45:27.435Z,81.43
2019-01-18T22:48:19.757Z,81.34
2019-01-18T22:51:33.068Z,81.22
2019-01-18T22:54:52.293Z,81.29
2019-01-18T22:58:02.189Z,81.28
2019-01-18T23:01:14.304Z,81.26
2019-01-18T23:04:16.272Z,81.26
2019-01-18T23:07:26.547Z,81.25
2019-01-18T23:10:35.813Z,81.16
2019-01-18T23:13:37.278Z,81.22
2019-01-18T23:16:44.488Z,81.25
2019-01-18T23:20:03.095Z,81.27
2019-01-18T23:22:58.795Z,81.21
2019-01-18T23:26:23.041Z,81.26
2019-01-18T23:29:19.588Z,81.29
2019-01-18T23:32:29.201Z,81.32
2019-01-18T23:35:22.135Z,81.35
2019-01-18T23:38:27.226Z,81.33
2019-01-18T23:41:14.213Z,81.29
2019-01-18T23:44:25.727Z,81.30
2019-01-18T23:47:24.189Z,81.29
2019-01-18T23:50:05.720Z,81.16
2019-01-18T23:52:54.333Z,81.14
2019-01-18T23:56:09.753Z,81.16
2019-01-18T23:58:51.305Z,81.05
